Time;durP1;ratioP1;P1;durP2;ratioP2;P2;SDS_P1;SDS_P2;PMS_P1;PMS_P2;Temp;Humidity;BMP_temperature;BMP_pressure;BME280_temperature;BME280_humidity;BME280_pressure;Samples;Min_cycle;Max_cycle;Signal;HPM_P1;HPM_P2
2021/09/24 00:01:44;;;;;;;4.38;3.20;;;12.40;72.20;;;;;;5014692;28;20022;-66
2021/09/24 00:04:14;;;;;;;3.90;2.97;;;12.40;72.30;;;;;;5013876;28;20116;-66
2021/09/24 00:06:41;;;;;;;4.30;3.20;;;12.30;72.40;;;;;;5007860;28;20470;-66
2021/09/24 00:09:06;;;;;;;3.67;2.40;;;12.30;72.50;;;;;;5013532;28;20397;-66
2021/09/24 00:11:33;;;;;;;5.28;3.58;;;12.30;72.50;;;;;;5013654;28;20030;-66
2021/09/24 00:13:59;;;;;;;3.95;3.20;;;12.30;72.50;;;;;;5014099;28;20053;-66
2021/09/24 00:16:25;;;;;;;3.70;3.28;;;12.20;73.20;;;;;;5013948;28;20080;-66
2021/09/24 00:18:50;;;;;;;5.55;3.80;;;12.20;72.50;;;;;;5013678;28;20115;-66
2021/09/24 00:21:16;;;;;;;4.30;3.40;;;12.20;72.50;;;;;;5013022;28;20434;-66
2021/09/24 00:23:42;;;;;;;4.97;3.42;;;12.20;72.50;;;;;;5013540;28;20426;-66
2021/09/24 00:26:07;;;;;;;6.18;4.30;;;12.10;72.60;;;;;;5012197;28;20420;-66
2021/09/24 00:28:33;;;;;;;5.18;3.88;;;12.10;72.70;;;;;;5013510;28;20035;-66
2021/09/24 00:30:58;;;;;;;6.20;4.43;;;12.10;72.70;;;;;;5013488;28;20033;-66
2021/09/24 00:33:28;;;;;;;5.75;3.95;;;12.10;72.80;;;;;;5013579;28;20036;-66
2021/09/24 00:35:55;;;;;;;6.60;4.43;;;12.10;72.90;;;;;;5011426;28;20065;-66
2021/09/24 00:38:21;;;;;;;4.30;3.42;;;12.00;73.00;;;;;;5013313;28;20104;-66
2021/09/24 00:40:47;;;;;;;5.70;4.32;;;12.00;73.10;;;;;;5013369;28;20026;-66
2021/09/24 00:43:13;;;;;;;5.40;4.20;;;12.00;73.00;;;;;;5015852;28;20037;-66
2021/09/24 00:45:38;;;;;;;5.82;4.70;;;12.00;73.20;;;;;;5019875;28;20053;-66
2021/09/24 00:48:04;;;;;;;5.60;4.28;;;12.00;73.10;;;;;;5019151;28;20034;-66
2021/09/24 00:50:30;;;;;;;8.63;5.25;;;12.00;73.10;;;;;;5019760;28;20546;-66
2021/09/24 00:52:56;;;;;;;5.20;4.35;;;12.00;73.00;;;;;;5018365;28;20030;-66
2021/09/24 00:55:23;;;;;;;5.95;4.60;;;12.00;72.90;;;;;;5019753;28;20096;-66
2021/09/24 00:57:49;;;;;;;6.43;4.60;;;11.90;73.10;;;;;;5019727;28;20022;-66
2021/09/24 01:00:15;;;;;;;5.47;4.22;;;11.90;73.10;;;;;;5019738;28;20144;-66
2021/09/24 01:02:41;;;;;;;6.53;4.30;;;11.80;73.10;;;;;;5019616;28;20041;-66
2021/09/24 01:05:09;;;;;;;4.55;3.83;;;11.80;73.20;;;;;;5019709;28;20022;-66
2021/09/24 01:07:40;;;;;;;4.95;3.83;;;11.80;73.40;;;;;;5019183;28;20034;-66
2021/09/24 01:10:07;;;;;;;5.97;4.50;;;11.80;73.30;;;;;;5019197;28;20057;-66
2021/09/24 01:12:34;;;;;;;5.57;3.65;;;11.70;73.40;;;;;;5019655;28;20081;-66
2021/09/24 01:15:04;;;;;;;3.65;3.30;;;11.70;73.50;;;;;;5019459;28;20025;-66
2021/09/24 01:17:29;;;;;;;5.10;4.10;;;11.70;73.50;;;;;;5018174;28;20465;-66
2021/09/24 01:19:55;;;;;;;6.32;4.15;;;11.70;73.60;;;;;;5019432;28;20089;-66
2021/09/24 01:22:21;;;;;;;4.88;3.58;;;11.70;73.70;;;;;;5019430;28;20053;-66
2021/09/24 01:24:47;;;;;;;4.20;3.80;;;11.60;73.60;;;;;;5019511;28;20026;-66
2021/09/24 01:27:13;;;;;;;3.75;3.30;;;11.70;73.70;;;;;;5019502;28;20099;-66
2021/09/24 01:29:39;;;;;;;5.15;4.43;;;11.70;73.60;;;;;;5018939;28;20030;-66
2021/09/24 01:32:05;;;;;;;5.50;4.40;;;11.70;73.60;;;;;;5019431;28;20022;-66
2021/09/24 01:34:32;;;;;;;5.53;4.47;;;11.60;73.60;;;;;;5019660;28;20061;-66
2021/09/24 01:36:58;;;;;;;4.97;4.43;;;11.70;73.50;;;;;;5007475;28;20038;-66
2021/09/24 01:39:23;;;;;;;5.80;4.18;;;11.60;73.50;;;;;;4999616;28;20125;-66
2021/09/24 01:41:50;;;;;;;4.72;4.18;;;11.60;73.50;;;;;;4999692;28;20113;-66
2021/09/24 01:44:16;;;;;;;7.13;5.00;;;11.60;73.50;;;;;;4999774;28;20022;-66
2021/09/24 01:46:46;;;;;;;5.18;4.28;;;11.60;73.50;;;;;;5018966;28;20064;-66
2021/09/24 01:49:12;;;;;;;6.13;4.38;;;11.60;73.50;;;;;;5019331;28;20026;-66
2021/09/24 01:51:39;;;;;;;5.32;4.30;;;11.60;73.70;;;;;;5019194;28;20084;-66
2021/09/24 01:54:06;;;;;;;5.43;4.20;;;11.60;73.80;;;;;;5018362;28;20037;-66
2021/09/24 01:56:32;;;;;;;6.15;4.50;;;11.60;73.70;;;;;;5015483;28;20034;-66
2021/09/24 01:58:58;;;;;;;5.70;4.68;;;11.60;73.70;;;;;;5016009;28;20038;-66
2021/09/24 02:01:24;;;;;;;5.20;4.13;;;11.60;73.60;;;;;;5015541;28;20060;-66
2021/09/24 02:03:50;;;;;;;6.15;4.45;;;11.60;73.50;;;;;;5016099;28;20068;-66
2021/09/24 02:06:16;;;;;;;4.57;3.92;;;11.60;73.50;;;;;;5007620;28;20795;-66
2021/09/24 02:08:42;;;;;;;4.70;4.10;;;11.60;73.40;;;;;;4998715;28;20038;-66
2021/09/24 02:11:10;;;;;;;6.72;4.60;;;11.60;73.40;;;;;;4996317;28;20042;-66
2021/09/24 02:13:37;;;;;;;5.18;3.67;;;11.60;73.40;;;;;;4996310;28;20022;-66
2021/09/24 02:16:03;;;;;;;5.43;4.03;;;11.50;73.40;;;;;;5008943;28;20054;-66
2021/09/24 02:18:29;;;;;;;5.70;4.22;;;11.60;73.60;;;;;;5015026;28;20049;-66
2021/09/24 02:20:55;;;;;;;4.25;3.55;;;11.60;73.60;;;;;;5015658;28;20030;-66
2021/09/24 02:23:21;;;;;;;5.40;4.10;;;11.60;73.60;;;;;;5015663;28;20053;-66
2021/09/24 02:25:47;;;;;;;5.03;3.75;;;11.70;73.60;;;;;;5004517;28;20458;-66
2021/09/24 02:28:13;;;;;;;4.53;3.72;;;11.70;73.60;;;;;;4995988;28;20030;-66
2021/09/24 02:30:39;;;;;;;7.75;3.30;;;11.70;73.60;;;;;;4996213;28;20018;-66
2021/09/24 02:33:05;;;;;;;5.55;3.80;;;11.70;73.40;;;;;;4995874;28;20062;-66
2021/09/24 02:35:31;;;;;;;4.75;3.42;;;11.80;73.20;;;;;;5007994;28;20034;-66
2021/09/24 02:37:56;;;;;;;5.88;4.00;;;11.80;73.20;;;;;;5015141;28;20486;-66
2021/09/24 02:40:22;;;;;;;4.93;3.90;;;11.80;73.10;;;;;;5015322;28;20088;-66
2021/09/24 02:42:48;;;;;;;5.40;3.95;;;11.80;73.20;;;;;;5015314;28;20077;-66
2021/09/24 02:45:13;;;;;;;3.65;3.20;;;11.90;73.30;;;;;;5015654;28;20060;-66
2021/09/24 02:47:39;;;;;;;5.07;3.80;;;11.90;73.20;;;;;;5015083;28;20024;-66
2021/09/24 02:50:07;;;;;;;5.38;3.85;;;11.90;73.10;;;;;;5014122;28;20036;-66
2021/09/24 02:52:33;;;;;;;5.25;4.10;;;12.00;73.20;;;;;;5014579;28;20084;-66
2021/09/24 02:54:59;;;;;;;7.10;4.32;;;12.00;73.10;;;;;;5013597;28;20037;-66
2021/09/24 02:57:25;;;;;;;6.05;4.00;;;12.00;73.10;;;;;;5014986;28;20470;-66
2021/09/24 02:59:51;;;;;;;4.75;3.30;;;12.10;73.00;;;;;;5014911;28;20076;-66
2021/09/24 03:02:17;;;;;;;5.65;4.03;;;12.10;73.10;;;;;;5014913;28;20067;-66
2021/09/24 03:04:42;;;;;;;7.32;4.10;;;12.10;72.90;;;;;;5014805;28;20539;-66
2021/09/24 03:07:08;;;;;;;5.80;3.97;;;12.10;72.70;;;;;;5013740;28;20065;-66
2021/09/24 03:09:34;;;;;;;5.40;3.75;;;12.20;72.70;;;;;;5012906;28;20029;-66
2021/09/24 03:12:00;;;;;;;5.03;3.60;;;12.20;72.60;;;;;;5012968;28;20026;-66
2021/09/24 03:14:25;;;;;;;4.78;3.30;;;12.20;72.60;;;;;;5013675;28;20421;-66
2021/09/24 03:16:51;;;;;;;5.50;3.85;;;12.20;72.70;;;;;;5014469;28;20026;-66
2021/09/24 03:19:20;;;;;;;5.43;3.90;;;12.20;72.60;;;;;;5014494;28;20022;-66
2021/09/24 03:21:47;;;;;;;6.53;3.58;;;12.20;72.60;;;;;;5014575;28;20108;-66
2021/09/24 03:24:12;;;;;;;4.18;3.38;;;12.20;72.40;;;;;;5014233;28;20462;-66
2021/09/24 03:26:38;;;;;;;5.55;4.32;;;12.20;72.50;;;;;;4997470;28;20030;-66
2021/09/24 03:29:04;;;;;;;5.07;3.88;;;12.20;72.60;;;;;;4994848;28;20030;-66
2021/09/24 03:31:30;;;;;;;4.75;3.70;;;12.20;72.50;;;;;;4994823;28;20057;-66
2021/09/24 03:33:55;;;;;;;6.35;3.83;;;12.30;72.70;;;;;;4994681;28;20101;-66
2021/09/24 03:36:21;;;;;;;6.35;4.30;;;12.20;72.60;;;;;;4994710;28;20085;-66
2021/09/24 03:38:47;;;;;;;5.20;4.15;;;12.30;72.50;;;;;;4994458;28;20490;-66
2021/09/24 03:41:12;;;;;;;8.00;3.75;;;12.30;72.40;;;;;;5012626;28;20049;-66
2021/09/24 03:43:38;;;;;;;7.15;3.92;;;12.30;72.30;;;;;;5014197;28;20411;-66
2021/09/24 03:46:04;;;;;;;5.38;3.90;;;12.30;72.30;;;;;;5014218;28;20018;-66
2021/09/24 03:48:29;;;;;;;4.78;3.40;;;12.30;72.30;;;;;;5013969;28;20072;-66
2021/09/24 03:50:56;;;;;;;4.57;3.30;;;12.30;72.40;;;;;;5014203;28;20021;-66
2021/09/24 03:53:21;;;;;;;5.35;3.70;;;12.30;72.40;;;;;;5013747;28;20030;-66
2021/09/24 03:55:52;;;;;;;4.10;3.20;;;12.40;72.50;;;;;;5014033;28;20180;-66
2021/09/24 03:58:18;;;;;;;4.67;3.30;;;12.40;72.50;;;;;;5013458;28;20125;-66
2021/09/24 04:00:43;;;;;;;4.05;3.30;;;12.40;72.30;;;;;;5013945;28;20097;-66
2021/09/24 04:03:09;;;;;;;4.50;3.58;;;12.40;72.10;;;;;;5012954;28;20030;-66
2021/09/24 04:05:35;;;;;;;4.80;4.00;;;12.40;72.10;;;;;;5013837;28;20022;-66
2021/09/24 04:08:00;;;;;;;5.80;4.05;;;12.40;72.00;;;;;;5013572;28;20026;-66
2021/09/24 04:10:26;;;;;;;6.32;4.60;;;12.40;72.00;;;;;;5013713;28;20018;-66
2021/09/24 04:12:51;;;;;;;4.97;3.92;;;12.40;71.90;;;;;;5013735;28;20030;-66
2021/09/24 04:15:17;;;;;;;5.60;4.05;;;12.40;72.00;;;;;;5013181;28;20053;-66
2021/09/24 04:17:43;;;;;;;6.43;4.03;;;12.40;72.30;;;;;;5012888;28;20029;-66
2021/09/24 04:20:09;;;;;;;6.53;3.97;;;12.40;72.30;;;;;;5013577;28;20029;-66
2021/09/24 04:22:35;;;;;;;7.07;4.80;;;12.50;72.30;;;;;;5011983;28;20049;-66
2021/09/24 04:25:00;;;;;;;7.30;4.35;;;12.50;72.20;;;;;;5013785;28;20026;-66
2021/09/24 04:27:26;;;;;;;6.65;4.57;;;12.50;72.10;;;;;;5013538;28;20026;-66
2021/09/24 04:29:52;;;;;;;5.72;4.28;;;12.50;71.90;;;;;;5013337;28;20112;-66
2021/09/24 04:32:17;;;;;;;6.25;4.30;;;12.40;71.90;;;;;;5012938;28;20026;-66
2021/09/24 04:34:43;;;;;;;6.05;4.10;;;12.40;72.00;;;;;;5013446;28;20022;-66
2021/09/24 04:37:09;;;;;;;6.15;4.57;;;12.40;71.90;;;;;;5013297;28;20064;-66
2021/09/24 04:39:34;;;;;;;8.90;4.47;;;12.40;72.10;;;;;;5013267;28;20113;-66
2021/09/24 04:42:00;;;;;;;5.72;4.30;;;12.40;72.10;;;;;;5013296;28;20052;-66
2021/09/24 04:44:26;;;;;;;9.13;5.57;;;12.50;72.20;;;;;;5013336;28;20382;-66
2021/09/24 04:46:51;;;;;;;6.30;4.68;;;12.50;72.30;;;;;;5013013;28;20050;-66
2021/09/24 04:49:17;;;;;;;7.20;4.72;;;12.60;72.30;;;;;;5012939;28;20037;-66
2021/09/24 04:51:44;;;;;;;7.40;4.75;;;12.60;72.10;;;;;;5012268;28;20113;-66
2021/09/24 04:54:10;;;;;;;7.53;5.40;;;12.60;72.20;;;;;;5013102;28;20018;-66
2021/09/24 04:56:35;;;;;;;7.63;5.13;;;12.60;72.20;;;;;;5013211;28;20033;-66
2021/09/24 04:59:01;;;;;;;6.35;4.50;;;12.60;72.20;;;;;;5013100;28;20061;-66
2021/09/24 05:01:27;;;;;;;7.28;5.20;;;12.60;72.20;;;;;;5007370;28;20022;-66
2021/09/24 05:03:52;;;;;;;5.20;4.18;;;12.60;72.40;;;;;;4999518;28;20355;-66
2021/09/24 05:06:18;;;;;;;6.65;4.35;;;12.60;72.50;;;;;;5008032;28;20030;-66
2021/09/24 05:08:44;;;;;;;6.25;4.82;;;12.70;72.70;;;;;;5010217;28;20041;-66
2021/09/24 05:11:09;;;;;;;8.07;5.22;;;12.70;72.70;;;;;;5003656;28;20088;-66
2021/09/24 05:13:35;;;;;;;5.68;4.13;;;12.70;72.90;;;;;;5001119;28;20046;-66
2021/09/24 05:16:00;;;;;;;5.25;4.10;;;12.70;72.70;;;;;;5005568;28;20034;-66
2021/09/24 05:18:26;;;;;;;6.88;4.70;;;12.70;72.90;;;;;;5014314;28;20030;-66
2021/09/24 05:20:52;;;;;;;6.45;4.70;;;12.70;72.90;;;;;;5005540;28;20021;-66
2021/09/24 05:23:17;;;;;;;7.00;4.70;;;12.70;72.90;;;;;;4999536;28;20026;-66
2021/09/24 05:25:43;;;;;;;9.95;4.93;;;12.70;73.00;;;;;;5002771;28;20448;-66
2021/09/24 05:28:09;;;;;;;6.95;4.95;;;12.70;73.10;;;;;;5004524;28;20359;-66
2021/09/24 05:30:34;;;;;;;8.27;4.82;;;12.70;73.20;;;;;;5006157;28;20057;-66
2021/09/24 05:33:00;;;;;;;6.88;4.25;;;12.70;73.30;;;;;;5009321;28;20026;-66
2021/09/24 05:35:26;;;;;;;5.90;4.15;;;12.70;73.40;;;;;;5011763;28;20091;-66
2021/09/24 05:37:51;;;;;;;7.38;4.93;;;12.70;73.50;;;;;;5014168;28;20029;-66
2021/09/24 05:40:17;;;;;;;7.57;4.93;;;12.80;73.60;;;;;;5019500;28;20033;-66
2021/09/24 05:42:43;;;;;;;7.22;5.57;;;12.80;73.50;;;;;;5027016;28;20022;-66
2021/09/24 05:45:14;;;;;;;7.03;4.38;;;12.70;73.40;;;;;;5015827;28;20018;-66
2021/09/24 05:47:41;;;;;;;8.40;5.45;;;12.70;73.50;;;;;;5015195;28;20073;-66
2021/09/24 05:50:14;;;;;;;9.30;5.70;;;12.70;73.70;;;;;;5011633;28;20120;-66
2021/09/24 05:52:49;;;;;;;7.43;4.78;;;12.70;73.90;;;;;;5011960;28;20038;-66
2021/09/24 05:55:17;;;;;;;7.32;5.00;;;12.70;73.90;;;;;;5004485;28;20118;-65
2021/09/24 05:57:43;;;;;;;7.70;5.03;;;12.60;74.10;;;;;;5009543;28;20025;-66
2021/09/24 06:00:11;;;;;;;8.00;5.30;;;12.70;74.30;;;;;;5011191;28;20025;-66
2021/09/24 06:02:38;;;;;;;7.07;5.20;;;12.70;74.30;;;;;;5006122;28;20025;-66
2021/09/24 06:05:04;;;;;;;7.80;5.30;;;12.70;74.50;;;;;;5005649;28;20578;-66
2021/09/24 06:07:30;;;;;;;7.28;5.10;;;12.70;74.60;;;;;;5000430;28;20030;-66
2021/09/24 06:09:56;;;;;;;7.55;5.05;;;12.70;74.60;;;;;;5011501;28;20163;-66
2021/09/24 06:12:22;;;;;;;7.93;5.15;;;12.70;74.60;;;;;;5006933;28;20061;-66
2021/09/24 06:14:47;;;;;;;7.28;5.10;;;12.70;74.60;;;;;;5009494;28;20562;-66
2021/09/24 06:17:14;;;;;;;7.13;4.85;;;12.70;74.50;;;;;;5014394;28;20025;-66
2021/09/24 06:19:39;;;;;;;6.38;4.47;;;12.70;74.60;;;;;;5006814;28;20520;-66
2021/09/24 06:22:06;;;;;;;6.97;4.57;;;12.70;74.80;;;;;;5012423;28;20026;-66
2021/09/24 06:24:31;;;;;;;8.65;5.28;;;12.70;74.80;;;;;;5009928;28;20060;-66
2021/09/24 06:26:57;;;;;;;8.50;5.38;;;12.70;74.90;;;;;;5012012;28;20058;-66
2021/09/24 06:29:23;;;;;;;7.18;4.65;;;12.70;74.80;;;;;;5015471;28;20088;-66
2021/09/24 06:31:49;;;;;;;6.57;4.78;;;12.70;74.90;;;;;;5007946;28;20061;-66
2021/09/24 06:34:14;;;;;;;6.80;4.47;;;12.70;74.90;;;;;;5002916;28;20030;-66
2021/09/24 06:36:40;;;;;;;6.68;4.80;;;12.70;75.10;;;;;;5003642;28;20038;-66
2021/09/24 06:39:06;;;;;;;6.88;4.80;;;12.70;75.30;;;;;;5003313;28;20070;-66
2021/09/24 06:41:32;;;;;;;6.32;4.50;;;12.70;75.30;;;;;;5004552;28;20121;-66
2021/09/24 06:43:57;;;;;;;5.75;4.40;;;12.80;75.30;;;;;;5005406;28;20566;-66
2021/09/24 06:46:23;;;;;;;6.50;4.47;;;12.80;75.40;;;;;;5005066;28;20034;-66
2021/09/24 06:48:49;;;;;;;7.13;4.63;;;12.80;75.60;;;;;;5005044;28;20108;-66
2021/09/24 06:51:15;;;;;;;7.63;4.57;;;12.90;75.60;;;;;;5007988;28;20117;-66
2021/09/24 06:53:41;;;;;;;5.55;4.63;;;12.90;75.40;;;;;;5011012;28;20033;-66
2021/09/24 06:56:06;;;;;;;5.95;4.22;;;13.00;75.60;;;;;;5006559;28;20385;-66
2021/09/24 06:58:32;;;;;;;6.75;4.78;;;13.00;75.50;;;;;;5003495;28;20529;-66
2021/09/24 07:00:59;;;;;;;6.03;4.60;;;13.00;75.30;;;;;;5004913;28;20018;-66
2021/09/24 07:03:25;;;;;;;6.78;4.85;;;13.00;75.20;;;;;;5003796;28;20110;-66
2021/09/24 07:05:51;;;;;;;5.97;4.75;;;13.00;75.40;;;;;;5006042;28;20140;-66
2021/09/24 07:08:17;;;;;;;7.50;4.68;;;13.00;75.20;;;;;;5008580;28;20030;-66
2021/09/24 07:10:44;;;;;;;7.93;4.95;;;13.00;75.20;;;;;;5009404;28;20034;-66
2021/09/24 07:13:09;;;;;;;5.45;4.45;;;13.00;75.40;;;;;;5007460;28;20046;-66
2021/09/24 07:15:36;;;;;;;6.50;4.90;;;13.00;75.50;;;;;;4995270;28;20030;-66
2021/09/24 07:18:01;;;;;;;4.90;4.32;;;13.00;75.60;;;;;;4999098;28;20041;-66
2021/09/24 07:20:27;;;;;;;5.55;3.97;;;13.00;75.90;;;;;;4997116;28;20037;-65
2021/09/24 07:22:53;;;;;;;5.40;4.18;;;13.00;76.00;;;;;;5002440;28;20481;-66
2021/09/24 07:25:18;;;;;;;5.93;4.60;;;13.10;76.10;;;;;;5000611;28;22165;-66
2021/09/24 07:27:44;;;;;;;6.18;4.95;;;13.10;76.00;;;;;;5002678;28;20041;-65
2021/09/24 07:30:10;;;;;;;6.30;4.90;;;13.20;75.90;;;;;;5003633;28;20049;-65
2021/09/24 07:32:36;;;;;;;6.32;4.85;;;13.20;75.90;;;;;;4996463;28;20034;-65
2021/09/24 07:35:02;;;;;;;6.78;5.10;;;13.20;75.70;;;;;;5000755;28;20116;-65
2021/09/24 07:37:28;;;;;;;5.50;4.70;;;13.20;75.60;;;;;;5004008;28;20192;-66
2021/09/24 07:39:53;;;;;;;5.57;4.50;;;13.20;75.80;;;;;;5005861;28;20523;-66
2021/09/24 07:42:19;;;;;;;6.75;5.03;;;13.20;76.00;;;;;;5002991;28;20030;-65
2021/09/24 07:44:45;;;;;;;5.97;4.78;;;13.20;75.70;;;;;;5000911;28;20126;-65
2021/09/24 07:47:10;;;;;;;7.70;4.70;;;13.20;75.80;;;;;;5002369;28;20030;-65
2021/09/24 07:49:36;;;;;;;6.22;4.57;;;13.30;75.90;;;;;;4998848;28;20060;-65
2021/09/24 07:52:02;;;;;;;7.85;4.55;;;13.30;76.10;;;;;;4997759;28;20037;-65
2021/09/24 07:54:28;;;;;;;6.07;4.90;;;13.30;76.10;;;;;;4993959;28;20022;-66
2021/09/24 07:56:54;;;;;;;7.00;5.10;;;13.30;76.10;;;;;;4988007;28;20037;-66
2021/09/24 07:59:20;;;;;;;7.60;4.90;;;13.30;76.10;;;;;;4990712;28;20653;-66
2021/09/24 08:01:46;;;;;;;6.25;4.88;;;13.30;76.00;;;;;;4990375;28;20033;-66
2021/09/24 08:04:12;;;;;;;5.75;4.53;;;13.30;76.00;;;;;;4992354;28;20037;-66
2021/09/24 08:06:37;;;;;;;5.75;4.53;;;13.30;76.10;;;;;;4995007;28;20038;-66
2021/09/24 08:09:04;;;;;;;6.43;4.78;;;13.30;75.90;;;;;;5000286;28;20025;-66
2021/09/24 08:11:30;;;;;;;7.53;4.85;;;13.20;75.90;;;;;;4997469;28;20034;-66
2021/09/24 08:13:56;;;;;;;6.43;4.72;;;13.30;76.20;;;;;;4990514;28;20728;-66
2021/09/24 08:16:22;;;;;;;5.38;4.30;;;13.30;76.20;;;;;;4995177;28;20038;-66
2021/09/24 08:18:47;;;;;;;7.25;5.00;;;13.30;76.30;;;;;;4995753;28;20033;-65
2021/09/24 08:21:13;;;;;;;6.70;4.10;;;13.30;76.20;;;;;;4999955;28;20432;-65
2021/09/24 08:23:41;;;;;;;7.47;4.82;;;13.20;76.20;;;;;;4998799;28;20045;-65
2021/09/24 08:26:09;;;;;;;6.20;4.68;;;13.30;76.40;;;;;;4993887;28;20034;-65
2021/09/24 08:28:35;;;;;;;6.72;4.28;;;13.20;76.20;;;;;;4990074;28;20124;-66
2021/09/24 08:31:01;;;;;;;5.43;4.30;;;13.20;76.10;;;;;;4991505;28;20029;-66
2021/09/24 08:33:27;;;;;;;6.10;4.63;;;13.20;76.20;;;;;;4995153;28;20543;-66
2021/09/24 08:35:54;;;;;;;6.38;4.85;;;13.20;76.40;;;;;;5001849;28;20037;-65
2021/09/24 08:38:20;;;;;;;5.70;4.47;;;13.20;76.50;;;;;;4999511;28;20105;-66
2021/09/24 08:40:46;;;;;;;5.68;4.55;;;13.20;76.40;;;;;;5000717;28;20046;-66
2021/09/24 08:43:13;;;;;;;7.25;4.68;;;13.20;76.60;;;;;;4991874;28;20567;-65
2021/09/24 08:45:41;;;;;;;6.13;4.50;;;13.20;76.60;;;;;;4993584;28;20094;-65
2021/09/24 08:48:10;;;;;;;6.00;4.28;;;13.10;76.60;;;;;;4995846;28;20076;-66
2021/09/24 08:50:37;;;;;;;5.35;4.15;;;13.10;76.50;;;;;;4999054;28;20141;-65
2021/09/24 08:53:06;;;;;;;7.30;4.60;;;13.20;76.60;;;;;;4987740;28;20030;-65
2021/09/24 08:55:32;;;;;;;6.47;4.68;;;13.10;76.80;;;;;;4987871;28;20026;-66
2021/09/24 08:57:59;;;;;;;5.97;4.70;;;13.10;76.90;;;;;;4992303;28;20042;-65
2021/09/24 09:00:26;;;;;;;7.28;4.70;;;13.10;77.00;;;;;;4994546;28;20029;-65
2021/09/24 09:02:54;;;;;;;6.82;4.88;;;13.10;77.10;;;;;;4994737;28;20363;-66
2021/09/24 09:05:21;;;;;;;5.07;4.28;;;13.10;77.10;;;;;;4998161;28;20069;-65
2021/09/24 09:07:47;;;;;;;5.43;4.18;;;13.10;77.20;;;;;;5001138;28;20125;-66
2021/09/24 09:10:13;;;;;;;5.72;4.20;;;13.10;77.40;;;;;;4991084;28;20045;-66
2021/09/24 09:12:40;;;;;;;6.82;4.60;;;13.10;77.60;;;;;;4994234;28;20256;-66
2021/09/24 09:15:08;;;;;;;6.68;4.32;;;13.20;77.90;;;;;;4998677;28;20426;-66
2021/09/24 09:17:35;;;;;;;5.32;4.15;;;13.20;77.80;;;;;;4996118;28;20549;-66
2021/09/24 09:20:11;;;;;;;6.25;4.55;;;13.20;77.80;;;;;;4992343;28;20080;-66
2021/09/24 09:22:38;;;;;;;5.43;4.32;;;13.30;77.80;;;;;;4994915;28;20589;-66
2021/09/24 09:25:05;;;;;;;6.03;3.88;;;13.30;77.40;;;;;;4997067;28;20041;-66
2021/09/24 09:27:31;;;;;;;5.70;4.20;;;13.30;77.40;;;;;;4999019;28;20581;-66
2021/09/24 09:30:11;;;;;;;6.53;5.25;;;13.30;77.70;;;;;;4997491;28;20025;-66
2021/09/24 09:32:37;;;;;;;6.82;5.05;;;13.30;77.90;;;;;;5000402;28;20037;-65
2021/09/24 09:35:05;;;;;;;6.22;4.35;;;13.30;78.00;;;;;;4996137;28;20363;-65
2021/09/24 09:37:35;;;;;;;5.15;4.63;;;13.30;78.00;;;;;;5000204;28;20567;-66
2021/09/24 09:40:21;;;;;;;5.40;4.03;;;13.30;78.00;;;;;;5004223;28;20038;-66
2021/09/24 09:42:49;;;;;;;6.05;4.15;;;13.30;78.10;;;;;;4999576;28;20121;-66
2021/09/24 09:45:18;;;;;;;6.50;4.32;;;13.40;78.20;;;;;;5003510;28;20437;-66
2021/09/24 09:47:48;;;;;;;5.15;4.13;;;13.40;78.10;;;;;;4993180;28;20026;-65
2021/09/24 09:50:26;;;;;;;5.82;4.38;;;13.40;78.10;;;;;;4995261;28;20092;-65
2021/09/24 09:53:05;;;;;;;5.22;4.30;;;13.40;78.10;;;;;;4998879;28;20445;-66
2021/09/24 09:55:33;;;;;;;7.32;4.18;;;13.40;78.00;;;;;;4997067;28;20034;-65
2021/09/24 09:58:03;;;;;;;7.47;4.78;;;13.40;77.80;;;;;;4993684;28;20176;-65
2021/09/24 10:00:31;;;;;;;6.60;4.82;;;13.50;77.90;;;;;;4990828;28;20057;-66
2021/09/24 10:03:04;;;;;;;5.53;4.07;;;13.50;78.00;;;;;;4994208;28;20045;-65
2021/09/24 10:05:41;;;;;;;6.38;4.57;;;13.50;77.90;;;;;;4994372;28;20557;-65
2021/09/24 10:08:26;;;;;;;5.90;4.50;;;13.50;78.00;;;;;;4996993;28;20064;-65
2021/09/24 10:11:00;;;;;;;6.80;4.55;;;13.60;77.90;;;;;;5002347;28;20494;-65
2021/09/24 10:13:27;;;;;;;5.70;4.28;;;13.50;77.80;;;;;;4992574;28;20032;-65
2021/09/24 10:15:53;;;;;;;5.30;4.40;;;13.50;77.80;;;;;;4998720;28;20048;-65
2021/09/24 10:18:19;;;;;;;6.45;4.70;;;13.50;77.80;;;;;;4999351;28;20025;-65
2021/09/24 10:20:46;;;;;;;4.85;4.35;;;13.50;77.60;;;;;;5006325;28;20139;-66
2021/09/24 10:23:13;;;;;;;6.30;4.60;;;13.50;77.70;;;;;;5003763;28;20033;-65
2021/09/24 10:25:41;;;;;;;8.30;4.43;;;13.50;78.00;;;;;;5000171;28;20026;-65
2021/09/24 10:28:10;;;;;;;5.90;4.25;;;13.50;78.20;;;;;;5008850;28;20501;-65
2021/09/24 10:30:37;;;;;;;6.97;4.95;;;13.50;78.20;;;;;;5000898;28;20057;-65
2021/09/24 10:33:13;;;;;;;7.10;4.85;;;13.50;78.30;;;;;;5001754;28;20074;-65
2021/09/24 10:35:55;;;;;;;7.78;5.40;;;13.50;78.40;;;;;;5004592;28;20032;-65
2021/09/24 10:38:23;;;;;;;6.72;5.03;;;13.50;78.40;;;;;;5011255;28;20041;-65
2021/09/24 10:41:03;;;;;;;7.10;5.40;;;13.50;78.50;;;;;;5000762;28;20086;-65
2021/09/24 10:43:47;;;;;;;5.85;4.65;;;13.50;78.60;;;;;;4998212;28;20121;-65
2021/09/24 10:46:44;;;;;;;7.03;4.53;;;13.50;78.70;;;;;;5007175;28;20101;-64
2021/09/24 10:49:16;;;;;;;7.63;4.93;;;13.60;78.70;;;;;;4996644;28;20041;-64
2021/09/24 10:51:57;;;;;;;6.95;4.70;;;13.60;78.80;;;;;;4998851;28;20058;-65
2021/09/24 10:54:25;;;;;;;6.77;4.80;;;13.60;78.80;;;;;;4998092;28;20029;-65
2021/09/24 10:57:08;;;;;;;5.18;4.20;;;13.60;78.90;;;;;;5000810;28;20041;-65
2021/09/24 10:59:34;;;;;;;5.70;4.47;;;13.60;78.80;;;;;;5001424;28;20092;-65
2021/09/24 11:02:20;;;;;;;5.28;3.88;;;13.60;78.80;;;;;;4998028;28;20034;-65
2021/09/24 11:04:48;;;;;;;5.20;3.80;;;13.70;78.70;;;;;;5004627;28;20025;-65
2021/09/24 11:07:28;;;;;;;6.15;4.45;;;13.70;78.50;;;;;;5003239;28;20025;-65
2021/09/24 11:09:54;;;;;;;4.65;3.80;;;13.70;78.50;;;;;;5008760;28;20533;-65
2021/09/24 11:12:19;;;;;;;5.10;3.80;;;13.70;78.60;;;;;;5005075;28;20029;-65
2021/09/24 11:14:46;;;;;;;4.95;4.05;;;13.80;78.90;;;;;;5001666;28;20027;-66
2021/09/24 11:17:32;;;;;;;6.10;3.92;;;13.80;78.80;;;;;;4998223;28;20026;-65
2021/09/24 11:19:58;;;;;;;5.18;3.65;;;13.90;78.90;;;;;;4994796;28;20053;-65
2021/09/24 11:22:39;;;;;;;4.13;3.42;;;14.00;79.00;;;;;;4999369;28;20052;-65
2021/09/24 11:25:08;;;;;;;5.32;4.13;;;14.00;78.90;;;;;;5002271;28;20030;-65
2021/09/24 11:27:38;;;;;;;4.57;3.33;;;14.10;78.70;;;;;;5000964;28;20811;-65
2021/09/24 11:30:04;;;;;;;6.25;4.20;;;14.10;78.60;;;;;;4995729;28;20025;-65
2021/09/24 11:32:37;;;;;;;5.38;3.80;;;14.20;78.60;;;;;;4997736;28;20022;-65
2021/09/24 11:35:04;;;;;;;5.38;4.40;;;14.20;78.70;;;;;;4993057;28;20122;-65
2021/09/24 11:37:32;;;;;;;6.35;4.97;;;14.30;78.80;;;;;;4990472;28;20048;-65
2021/09/24 11:40:04;;;;;;;6.05;4.60;;;14.40;78.80;;;;;;4997314;28;20121;-65
2021/09/24 11:42:34;;;;;;;6.85;4.28;;;14.40;78.70;;;;;;5002929;28;20021;-65
2021/09/24 11:45:01;;;;;;;5.55;4.38;;;14.50;78.80;;;;;;5000356;28;20038;-65
2021/09/24 11:47:29;;;;;;;6.65;4.32;;;14.60;78.70;;;;;;4998078;28;20034;-65
2021/09/24 11:50:04;;;;;;;5.47;4.15;;;14.60;78.70;;;;;;5001387;28;20034;-65
2021/09/24 11:52:52;;;;;;;5.22;4.35;;;14.70;78.80;;;;;;5006254;28;20069;-64
2021/09/24 11:55:29;;;;;;;5.05;3.78;;;14.70;78.90;;;;;;5007209;28;20034;-64
2021/09/24 11:58:09;;;;;;;6.47;4.80;;;14.70;78.60;;;;;;5004703;28;20069;-64
2021/09/24 12:00:40;;;;;;;4.90;3.97;;;14.80;78.50;;;;;;5007705;28;20377;-64
2021/09/24 12:03:09;;;;;;;6.00;4.22;;;14.80;78.30;;;;;;5007309;28;20021;-64
2021/09/24 12:05:36;;;;;;;7.03;4.38;;;14.90;78.30;;;;;;5006125;28;20036;-64
2021/09/24 12:08:01;;;;;;;5.18;4.15;;;14.90;78.50;;;;;;5004042;28;20385;-64
2021/09/24 12:10:29;;;;;;;5.72;4.80;;;15.00;78.50;;;;;;5009907;28;20030;-64
2021/09/24 12:13:16;;;;;;;7.55;5.15;;;15.10;78.40;;;;;;5004270;28;20034;-65
2021/09/24 12:15:55;;;;;;;6.20;4.55;;;15.20;78.40;;;;;;5005206;28;20076;-65
2021/09/24 12:18:24;;;;;;;6.30;5.00;;;15.20;78.30;;;;;;5013522;28;20045;-65
2021/09/24 12:20:59;;;;;;;5.70;4.53;;;15.30;78.10;;;;;;5010219;28;20041;-65
2021/09/24 12:23:25;;;;;;;5.68;4.47;;;15.30;78.20;;;;;;5012924;28;20662;-64
2021/09/24 12:25:59;;;;;;;6.32;4.13;;;15.30;77.90;;;;;;5008077;28;20030;-65
2021/09/24 12:28:24;;;;;;;5.95;4.72;;;15.40;77.80;;;;;;5014152;28;20061;-65
2021/09/24 12:30:50;;;;;;;6.55;5.45;;;15.40;77.60;;;;;;5009312;28;20037;-65
2021/09/24 12:33:16;;;;;;;5.55;4.95;;;15.40;77.50;;;;;;5002001;28;20401;-65
2021/09/24 12:36:02;;;;;;;5.85;5.07;;;15.40;77.30;;;;;;5008201;28;20167;-65
2021/09/24 12:38:33;;;;;;;8.25;4.70;;;15.30;77.30;;;;;;5011232;28;20488;-65
2021/09/24 12:41:25;;;;;;;4.93;4.22;;;15.30;77.40;;;;;;5015168;28;20091;-65
2021/09/24 12:43:50;;;;;;;5.65;4.68;;;15.30;77.40;;;;;;5004303;28;20496;-64
2021/09/24 12:46:16;;;;;;;5.70;4.97;;;15.20;77.60;;;;;;5002908;28;20022;-65
2021/09/24 12:48:45;;;;;;;7.10;5.60;;;15.30;77.70;;;;;;5006308;28;20156;-65
2021/09/24 12:51:12;;;;;;;6.82;4.28;;;15.30;77.60;;;;;;5005691;28;20097;-64